Norfolk, Massachusetts
Current Conditions -  °F | °C
As of 2:19 AM on Thursday 23 Oct 2014 (Local Time) from KOWD Reporting Station
Heavy Rain Heavy Rain  
Wind Chill: 10°   Ceiling: 1400
Heat Index: 10°   Visibility: 3mi
Dew Point:   Wind: 12mph
Humidity: 96%   Direction: 350°N
Pressure: 29.74"   Gusts: NA
Location:  42.12°N, 71.32°W
Report Text: KOWD 230619Z AUTO 35010KT 3SM +RA BR FEW007 BKN014 OVC020 10/09 A2974 RMK AO2 LTG DSNT E PRESFR P0022 T01000094
Loading
Personal Weather Stations






























Interactive Weather Map
Tropical Storm Tracking
New forecast layout! Learn more

10-Day Weather Forecast

Advertisements
Track Severe Weather on mobile